KFSI/FSI METAR and TAF weather

Enter ICAO airport designator
Station Type Date Time Source
KFSI METAR 2020/03/31 10:32 UTC NOAA

KFSI 311032Z AUTO 36006KT 10SM SCT005 SCT009 SCT013 OVC020 10/10 A3003 RMK AO2 DZB08E17 CIG 011V020 SLP168


Station Type Date Time Source
KFSI Decoded METAR 2020/03/31 10:32 UTC NOAA

Fort Sill, OK, United States (KFSI) 34-36N 098-24W 360M
Mar 31, 2020 - 06:32 AM EDT / 2020.03.31 1032 UTC
Wind: from the N (360 degrees) at 7 MPH (6 KT):0
Visibility: 10 mile(s):0
Sky conditions: overcast
Temperature: 50 F (10 C)
Dew Point: 50 F (10 C)
Relative Humidity: 100%
Pressure (altimeter): 30.03 in. Hg (1016 hPa)
ob: KFSI 311032Z AUTO 36006KT 10SM SCT005 SCT009 SCT013 OVC020 10/10 A3003 RMK AO2 DZB08E17 CIG 011V020 SLP168
cycle: 10

Station Type Date Time Source
KFSI TAF 2020/03/30 15:45 UTC NOAA

TAF TAF
AMD KFSI 301541Z 3015/3119 13010G15KT 8000 -SHRA VCTS BKN020CB 510102 QNH2988INS
TEMPO 3016/3023 12015G25KT 6000 TSRA OVC015CB
BECMG 3100/3101 VRB06KT 8000 BR OVC005 510102 QNH2985INS
BECMG 3112/3113 36015G20KT 9000 BR BKN013 QNH3004INS
BECMG 3114/3115 36015G20KT 9000 BR BKN014 510082 QNH3007INS TX18/3016Z TN12/3113Z LAST NO
AMDS AFT 3021 NEXT 3113

Example: see airport list